Time;durP1;ratioP1;P1;durP2;ratioP2;P2;SDS_P1;SDS_P2;PMS_P1;PMS_P2;Temp;Humidity;BMP_temperature;BMP_pressure;BME280_temperature;BME280_humidity;BME280_pressure;Samples;Min_cycle;Max_cycle;Signal;HPM_P1;HPM_P2
2022/01/01 00:02:18;;;;;;;12.95;7.45;;;;;;;;;;5030752;28;20128;-71
2022/01/01 00:04:44;;;;;;;17.42;7.03;;;;;;;;;;5029015;28;20885;-71
2022/01/01 00:07:10;;;;;;;14.50;6.68;;;;;;;;;;5032651;28;20026;-71
2022/01/01 00:09:36;;;;;;;13.07;6.55;;;;;;;;;;5033845;28;20727;-71
2022/01/01 00:12:01;;;;;;;14.68;6.97;;;;;;;;;;5043293;28;20037;-71
2022/01/01 00:14:27;;;;;;;15.50;6.45;;;;;;;;;;5028764;28;20087;-71
2022/01/01 00:16:52;;;;;;;14.32;6.70;;;;;;;;;;5028470;28;20136;-71
2022/01/01 00:19:17;;;;;;;16.08;6.55;;;;;;;;;;5041417;28;20028;-71
2022/01/01 00:21:43;;;;;;;13.88;6.90;;;;;;;;;;5035578;28;20071;-71
2022/01/01 00:24:09;;;;;;;18.73;8.25;;;;;;;;;;5044240;28;20040;-71
2022/01/01 00:26:34;;;;;;;24.23;9.70;;;;;;;;;;5044910;28;20036;-70
2022/01/01 00:29:00;;;;;;;22.27;8.23;;;;;;;;;;5043926;28;20044;-71
2022/01/01 00:31:25;;;;;;;18.52;8.23;;;;;;;;;;5049188;28;20023;-71
2022/01/01 00:33:51;;;;;;;17.02;7.95;;;;;;;;;;5053402;28;20071;-71
2022/01/01 00:36:16;;;;;;;15.68;6.80;;;;;;;;;;5069467;28;20041;-71
2022/01/01 00:38:42;;;;;;;13.70;6.30;;;;;;;;;;5062167;28;20036;-71
2022/01/01 00:41:07;;;;;;;17.40;7.00;;;;;;;;;;5062994;28;20262;-71
2022/01/01 00:43:33;;;;;;;14.18;6.20;;;;;;;;;;5055761;28;20036;-71
2022/01/01 00:45:58;;;;;;;16.52;6.65;;;;;;;;;;5053609;28;20040;-71
2022/01/01 00:48:23;;;;;;;16.02;6.50;;;;;;;;;;5052967;28;20041;-71
2022/01/01 00:50:49;;;;;;;11.73;5.88;;;;;;;;;;5037259;28;20595;-71
2022/01/01 00:53:14;;;;;;;16.50;6.88;;;;;;;;;;5035171;28;20064;-70
2022/01/01 00:55:40;;;;;;;17.27;7.10;;;;;;;;;;5035670;28;20472;-71
2022/01/01 00:58:05;;;;;;;14.82;7.10;;;;;;;;;;5037275;28;20433;-70
2022/01/01 01:00:31;;;;;;;16.30;8.05;;;;;;;;;;5047997;28;20448;-71
2022/01/01 01:02:56;;;;;;;17.02;7.88;;;;;;;;;;5046666;28;20072;-71
2022/01/01 01:05:21;;;;;;;16.73;6.72;;;;;;;;;;5043032;28;20041;-71
2022/01/01 01:07:46;;;;;;;11.40;6.38;;;;;;;;;;5040559;28;20025;-71
2022/01/01 01:10:13;;;;;;;12.73;6.10;;;;;;;;;;5028949;28;20017;-71
2022/01/01 01:12:45;;;;;;;11.60;5.50;;;;;;;;;;5029060;28;20033;-71
2022/01/01 01:15:17;;;;;;;16.98;5.82;;;;;;;;;;5038738;28;20612;-71
2022/01/01 01:17:49;;;;;;;12.60;5.82;;;;;;;;;;5045067;28;20049;-71
2022/01/01 01:20:16;;;;;;;10.60;5.05;;;;;;;;;;5038990;28;20536;-71
2022/01/01 01:22:42;;;;;;;10.60;5.25;;;;;;;;;;5019284;28;20033;-71
2022/01/01 01:25:08;;;;;;;10.38;5.35;;;;;;;;;;5034078;28;20568;-71
2022/01/01 01:27:35;;;;;;;13.02;5.95;;;;;;;;;;5034882;28;20029;-71
2022/01/01 01:30:02;;;;;;;11.02;5.32;;;;;;;;;;5034002;28;20468;-71
2022/01/01 01:32:27;;;;;;;14.23;5.60;;;;;;;;;;5034065;28;20418;-71
2022/01/01 01:34:53;;;;;;;14.48;5.55;;;;;;;;;;5036033;28;20040;-71
2022/01/01 01:37:18;;;;;;;10.32;5.13;;;;;;;;;;5033562;28;20506;-71
2022/01/01 01:39:43;;;;;;;14.90;5.18;;;;;;;;;;5037317;28;20103;-70
2022/01/01 01:42:09;;;;;;;13.68;5.40;;;;;;;;;;5033338;28;20143;-71
2022/01/01 01:44:41;;;;;;;9.88;4.93;;;;;;;;;;5014087;28;20041;-72
2022/01/01 01:47:14;;;;;;;11.68;5.63;;;;;;;;;;5029498;28;20585;-71
2022/01/01 01:49:41;;;;;;;17.58;5.38;;;;;;;;;;5046893;28;20055;-71
2022/01/01 01:52:07;;;;;;;10.27;5.10;;;;;;;;;;5037775;28;20037;-71
2022/01/01 01:54:33;;;;;;;14.90;5.97;;;;;;;;;;5033642;28;20064;-71
2022/01/01 01:56:58;;;;;;;13.30;5.63;;;;;;;;;;5033171;28;20110;-71
2022/01/01 01:59:24;;;;;;;12.07;4.90;;;;;;;;;;5034024;28;20050;-70
2022/01/01 02:01:51;;;;;;;9.23;4.72;;;;;;;;;;5035666;28;20039;-71
2022/01/01 02:04:16;;;;;;;13.75;5.28;;;;;;;;;;5017725;28;20009;-71
2022/01/01 02:06:42;;;;;;;12.75;5.38;;;;;;;;;;5033448;28;20040;-71
2022/01/01 02:09:12;;;;;;;12.32;5.38;;;;;;;;;;5030187;28;20172;-71
2022/01/01 02:11:38;;;;;;;15.15;5.60;;;;;;;;;;5044870;28;20070;-71
2022/01/01 02:14:09;;;;;;;12.43;6.13;;;;;;;;;;5044646;28;20046;-71
2022/01/01 02:16:53;;;;;;;13.80;5.97;;;;;;;;;;5044037;28;20036;-71
2022/01/01 02:19:25;;;;;;;;;;;;;;;;;;5045475;28;20037;-71
2022/01/01 02:21:52;;;;;;;15.15;6.30;;;;;;;;;;5035372;28;20409;-71
2022/01/01 02:24:17;;;;;;;14.68;6.18;;;;;;;;;;5043757;28;20037;-71
2022/01/01 02:26:43;;;;;;;17.00;7.35;;;;;;;;;;5042773;28;20097;-71
2022/01/01 02:29:09;;;;;;;16.77;6.72;;;;;;;;;;5043197;28;20036;-71
2022/01/01 02:31:34;;;;;;;16.38;6.85;;;;;;;;;;5016396;28;20021;-71
2022/01/01 02:34:09;;;;;;;15.10;7.60;;;;;;;;;;5033200;28;20055;-71
2022/01/01 02:36:42;;;;;;;16.40;7.75;;;;;;;;;;5036522;28;20592;-71
2022/01/01 02:39:13;;;;;;;25.45;8.65;;;;;;;;;;5036241;28;20669;-71
2022/01/01 02:41:39;;;;;;;21.50;8.90;;;;;;;;;;5047775;28;20029;-71
2022/01/01 02:44:06;;;;;;;19.80;8.52;;;;;;;;;;5043784;28;20469;-71
2022/01/01 02:46:32;;;;;;;20.55;7.55;;;;;;;;;;5038944;28;20029;-71
2022/01/01 02:48:58;;;;;;;21.25;8.55;;;;;;;;;;5045133;28;20052;-71
2022/01/01 02:51:23;;;;;;;18.38;7.95;;;;;;;;;;5021821;28;20033;-71
2022/01/01 02:53:49;;;;;;;16.38;7.53;;;;;;;;;;5044994;28;20040;-71
2022/01/01 02:56:14;;;;;;;17.13;7.28;;;;;;;;;;5042017;28;20129;-71
2022/01/01 02:58:40;;;;;;;20.17;8.43;;;;;;;;;;5040988;28;20043;-71
2022/01/01 03:01:06;;;;;;;19.95;8.77;;;;;;;;;;5035877;28;20048;-71
2022/01/01 03:03:31;;;;;;;21.65;7.95;;;;;;;;;;5018542;28;20168;-71
2022/01/01 03:05:56;;;;;;;17.58;5.95;;;;;;;;;;5036715;28;20034;-71
2022/01/01 03:08:21;;;;;;;19.95;8.15;;;;;;;;;;5035989;28;20464;-71
2022/01/01 03:10:47;;;;;;;19.10;8.65;;;;;;;;;;5045844;28;20429;-70
2022/01/01 03:13:12;;;;;;;20.48;8.50;;;;;;;;;;5033261;28;20765;-71
2022/01/01 03:15:38;;;;;;;19.92;9.38;;;;;;;;;;5034645;28;20059;-71
2022/01/01 03:18:03;;;;;;;22.85;9.82;;;;;;;;;;5033329;28;20041;-70
2022/01/01 03:20:28;;;;;;;19.08;9.35;;;;;;;;;;5040994;28;20481;-71
2022/01/01 03:22:54;;;;;;;22.75;9.50;;;;;;;;;;5033423;28;20044;-71
2022/01/01 03:25:19;;;;;;;22.42;10.43;;;;;;;;;;5029904;28;20036;-71
2022/01/01 03:27:44;;;;;;;21.80;9.75;;;;;;;;;;5035859;28;20119;-71
2022/01/01 03:30:10;;;;;;;26.00;10.68;;;;;;;;;;5032019;28;20029;-71
2022/01/01 03:32:35;;;;;;;18.90;9.40;;;;;;;;;;5031119;28;20042;-71
2022/01/01 03:35:01;;;;;;;22.83;10.95;;;;;;;;;;5027997;28;20037;-71
2022/01/01 03:37:26;;;;;;;27.63;11.00;;;;;;;;;;5039109;28;20029;-70
2022/01/01 03:39:52;;;;;;;21.67;10.70;;;;;;;;;;5031925;28;20047;-71
2022/01/01 03:42:17;;;;;;;23.88;10.10;;;;;;;;;;5035475;28;20040;-71
2022/01/01 03:44:42;;;;;;;24.67;10.23;;;;;;;;;;5016004;28;20522;-71
2022/01/01 03:47:09;;;;;;;26.42;10.95;;;;;;;;;;5032526;28;20091;-70
2022/01/01 03:49:39;;;;;;;22.02;10.15;;;;;;;;;;5035276;28;20053;-71
2022/01/01 03:52:06;;;;;;;23.02;10.10;;;;;;;;;;5063353;28;20040;-71
2022/01/01 03:54:32;;;;;;;25.50;10.18;;;;;;;;;;5059087;28;20041;-71
2022/01/01 03:56:57;;;;;;;21.60;9.93;;;;;;;;;;5053057;28;20044;-70
2022/01/01 03:59:25;;;;;;;22.23;10.65;;;;;;;;;;5053642;28;20059;-71
2022/01/01 04:01:50;;;;;;;22.60;11.07;;;;;;;;;;5053024;28;20434;-71
2022/01/01 04:04:16;;;;;;;26.70;11.50;;;;;;;;;;5054138;28;20525;-71
2022/01/01 04:06:41;;;;;;;21.65;10.60;;;;;;;;;;5051261;28;20040;-71
2022/01/01 04:09:06;;;;;;;23.80;10.40;;;;;;;;;;5052514;28;20505;-71
2022/01/01 04:11:32;;;;;;;25.38;11.05;;;;;;;;;;5057982;28;20544;-71
2022/01/01 04:13:57;;;;;;;26.85;11.70;;;;;;;;;;5048432;28;20052;-70
2022/01/01 04:16:23;;;;;;;24.55;10.75;;;;;;;;;;5048176;28;20032;-71
2022/01/01 04:18:48;;;;;;;26.23;11.10;;;;;;;;;;5040506;28;20176;-71
2022/01/01 04:21:15;;;;;;;19.52;9.75;;;;;;;;;;5040457;28;20600;-70
2022/01/01 04:23:41;;;;;;;20.92;9.90;;;;;;;;;;5036582;28;20033;-71
2022/01/01 04:26:07;;;;;;;25.83;10.77;;;;;;;;;;5046217;28;20514;-71
2022/01/01 04:28:33;;;;;;;21.75;8.90;;;;;;;;;;5033837;28;20021;-71
2022/01/01 04:30:59;;;;;;;25.25;10.40;;;;;;;;;;5035594;28;20040;-71
2022/01/01 04:33:24;;;;;;;26.63;12.55;;;;;;;;;;5035650;28;20521;-71
2022/01/01 04:35:49;;;;;;;24.50;11.05;;;;;;;;;;5036641;28;20551;-71
2022/01/01 04:38:36;;;;;;;23.67;11.98;;;;;;;;;;5043619;28;20462;-71
2022/01/01 04:41:06;;;;;;;29.05;12.13;;;;;;;;;;5065835;28;20037;-71
2022/01/01 04:43:32;;;;;;;26.00;12.15;;;;;;;;;;5062187;28;20033;-71
2022/01/01 04:45:57;;;;;;;29.80;11.60;;;;;;;;;;5065349;28;20067;-71
2022/01/01 04:48:23;;;;;;;31.33;12.90;;;;;;;;;;5059064;28;20037;-71
2022/01/01 04:50:48;;;;;;;32.55;12.82;;;;;;;;;;5043988;28;20506;-71
2022/01/01 04:53:17;;;;;;;31.58;13.45;;;;;;;;;;5028365;28;20084;-70
2022/01/01 04:55:42;;;;;;;30.45;13.05;;;;;;;;;;5039732;28;20025;-71
2022/01/01 04:58:08;;;;;;;32.15;12.48;;;;;;;;;;5060815;28;20024;-71
2022/01/01 05:00:33;;;;;;;24.65;11.07;;;;;;;;;;5060072;28;20443;-71
2022/01/01 05:02:58;;;;;;;24.90;11.35;;;;;;;;;;5051600;28;20655;-71
2022/01/01 05:05:24;;;;;;;27.60;11.40;;;;;;;;;;5052209;28;20049;-71
2022/01/01 05:07:50;;;;;;;27.35;11.90;;;;;;;;;;5055487;28;20028;-70
2022/01/01 05:10:15;;;;;;;26.40;11.13;;;;;;;;;;5062636;28;20017;-71
2022/01/01 05:12:41;;;;;;;31.35;10.77;;;;;;;;;;5050701;28;20068;-71
2022/01/01 05:15:06;;;;;;;29.35;13.15;;;;;;;;;;5057582;28;20032;-71
2022/01/01 05:17:32;;;;;;;25.83;11.48;;;;;;;;;;5048495;28;20552;-71
2022/01/01 05:19:57;;;;;;;29.27;11.20;;;;;;;;;;5041933;28;20083;-71
2022/01/01 05:22:22;;;;;;;24.30;11.23;;;;;;;;;;5058247;28;20632;-71
2022/01/01 05:24:48;;;;;;;25.77;11.63;;;;;;;;;;5062876;28;20047;-71
2022/01/01 05:27:13;;;;;;;26.00;10.73;;;;;;;;;;5058526;28;20045;-71
2022/01/01 05:29:38;;;;;;;22.45;9.68;;;;;;;;;;5062129;28;20036;-71
2022/01/01 05:32:04;;;;;;;23.45;10.88;;;;;;;;;;5065848;28;20183;-71
2022/01/01 05:34:29;;;;;;;25.20;10.90;;;;;;;;;;5049439;28;20439;-70
2022/01/01 05:36:54;;;;;;;25.80;10.73;;;;;;;;;;5041296;28;20033;-71
2022/01/01 05:39:20;;;;;;;26.42;10.85;;;;;;;;;;5038562;28;20127;-71
2022/01/01 05:41:45;;;;;;;23.40;9.93;;;;;;;;;;5048572;28;20125;-71
2022/01/01 05:44:11;;;;;;;21.92;9.95;;;;;;;;;;5062899;28;20044;-70
2022/01/01 05:46:36;;;;;;;26.17;10.90;;;;;;;;;;5060094;28;20029;-71
2022/01/01 05:49:02;;;;;;;24.45;10.10;;;;;;;;;;5052617;28;20044;-71
2022/01/01 05:51:27;;;;;;;30.30;10.85;;;;;;;;;;5056419;28;20036;-71
2022/01/01 05:53:52;;;;;;;24.90;9.32;;;;;;;;;;5047757;28;20111;-70
2022/01/01 05:56:18;;;;;;;20.25;9.35;;;;;;;;;;5043813;28;20177;-71
2022/01/01 05:58:43;;;;;;;27.00;9.82;;;;;;;;;;5061260;28;20158;-71
2022/01/01 06:01:09;;;;;;;23.58;10.43;;;;;;;;;;5066713;28;20115;-71
2022/01/01 06:03:34;;;;;;;26.83;10.80;;;;;;;;;;5063945;28;20078;-71
2022/01/01 06:05:59;;;;;;;23.80;10.57;;;;;;;;;;5052658;28;20053;-71
2022/01/01 06:08:28;;;;;;;23.73;10.70;;;;;;;;;;5038801;28;20049;-71
2022/01/01 06:10:56;;;;;;;25.00;10.73;;;;;;;;;;5041364;28;20025;-71
2022/01/01 06:13:21;;;;;;;22.67;9.35;;;;;;;;;;5037943;28;20028;-71
2022/01/01 06:15:47;;;;;;;24.88;10.88;;;;;;;;;;5056546;28;20043;-71
2022/01/01 06:18:12;;;;;;;21.63;9.00;;;;;;;;;;5057177;28;20063;-71
2022/01/01 06:20:38;;;;;;;17.35;8.10;;;;;;;;;;5057590;28;20029;-71
2022/01/01 06:23:05;;;;;;;21.48;9.80;;;;;;;;;;5057238;28;20036;-70
2022/01/01 06:25:30;;;;;;;17.60;7.88;;;;;;;;;;5065132;28;20119;-71
2022/01/01 06:27:56;;;;;;;23.63;9.23;;;;;;;;;;5063775;28;20033;-71
2022/01/01 06:30:21;;;;;;;18.45;8.20;;;;;;;;;;5048556;28;20069;-71
2022/01/01 06:32:49;;;;;;;19.48;8.55;;;;;;;;;;5040788;28;20053;-71
2022/01/01 06:35:14;;;;;;;18.52;9.23;;;;;;;;;;5040161;28;20077;-71
2022/01/01 06:37:40;;;;;;;21.90;8.55;;;;;;;;;;5040481;28;20048;-71
2022/01/01 06:40:06;;;;;;;22.83;9.23;;;;;;;;;;5038677;28;20418;-71
2022/01/01 06:42:31;;;;;;;18.17;8.55;;;;;;;;;;5041145;28;20048;-71
2022/01/01 06:44:56;;;;;;;24.40;9.07;;;;;;;;;;5048648;28;20033;-71
2022/01/01 06:47:22;;;;;;;18.55;8.82;;;;;;;;;;5047921;28;20033;-71
2022/01/01 06:49:47;;;;;;;19.98;10.07;;;;;;;;;;5031347;28;20037;-71
2022/01/01 06:52:12;;;;;;;22.30;9.27;;;;;;;;;;5022013;28;20021;-71
2022/01/01 06:54:38;;;;;;;25.83;9.90;;;;;;;;;;5021611;28;20033;-71
2022/01/01 06:57:03;;;;;;;20.48;9.20;;;;;;;;;;5031604;28;20256;-71
2022/01/01 06:59:29;;;;;;;24.58;10.27;;;;;;;;;;5039372;28;20065;-71
2022/01/01 07:01:54;;;;;;;22.95;10.25;;;;;;;;;;5038598;28;20039;-71
2022/01/01 07:04:19;;;;;;;28.98;10.25;;;;;;;;;;5039242;28;20026;-71
2022/01/01 07:06:45;;;;;;;27.55;11.20;;;;;;;;;;5030710;28;20451;-71
2022/01/01 07:09:11;;;;;;;25.02;9.88;;;;;;;;;;5034886;28;21041;-71
2022/01/01 07:11:36;;;;;;;23.70;9.98;;;;;;;;;;5041031;28;20634;-70
2022/01/01 07:14:01;;;;;;;24.33;9.68;;;;;;;;;;5029035;28;20044;-71
2022/01/01 07:16:27;;;;;;;25.55;10.38;;;;;;;;;;5040194;28;20017;-71
2022/01/01 07:18:52;;;;;;;21.58;8.95;;;;;;;;;;5037356;28;20049;-71
2022/01/01 07:21:18;;;;;;;24.52;9.30;;;;;;;;;;5038645;28;20048;-71
2022/01/01 07:23:43;;;;;;;19.75;9.35;;;;;;;;;;5043985;28;20037;-71
2022/01/01 07:26:09;;;;;;;19.92;9.60;;;;;;;;;;5040775;28;20038;-71
2022/01/01 07:28:34;;;;;;;20.63;9.32;;;;;;;;;;5037838;28;20021;-71
2022/01/01 07:30:59;;;;;;;20.15;9.50;;;;;;;;;;5045525;28;20099;-71
2022/01/01 07:33:25;;;;;;;19.92;9.13;;;;;;;;;;5040526;28;20588;-70
2022/01/01 07:35:50;;;;;;;18.95;8.90;;;;;;;;;;5040026;28;20039;-71
2022/01/01 07:38:15;;;;;;;22.40;9.35;;;;;;;;;;5038413;28;20037;-71
2022/01/01 07:40:41;;;;;;;23.05;9.93;;;;;;;;;;5040287;28;20112;-71
2022/01/01 07:43:14;;;;;;;17.85;8.77;;;;;;;;;;5045377;28;20017;-70
2022/01/01 07:45:40;;;;;;;19.38;8.90;;;;;;;;;;5037508;28;20029;-71
2022/01/01 07:48:07;;;;;;;21.25;8.77;;;;;;;;;;5037807;28;20033;-70
2022/01/01 07:50:32;;;;;;;22.45;9.02;;;;;;;;;;5055763;28;20047;-71
2022/01/01 07:52:58;;;;;;;17.35;8.15;;;;;;;;;;5056987;28;20418;-71
2022/01/01 07:55:23;;;;;;;19.27;9.18;;;;;;;;;;5042106;28;20024;-71
2022/01/01 07:57:48;;;;;;;19.63;8.40;;;;;;;;;;5034465;28;20033;-71
2022/01/01 08:00:14;;;;;;;16.83;8.13;;;;;;;;;;5052263;28;20058;-70
2022/01/01 08:02:45;;;;;;;20.80;8.40;;;;;;;;;;5045594;28;20055;-71
2022/01/01 08:05:11;;;;;;;18.05;8.30;;;;;;;;;;5044200;28;20033;-71
2022/01/01 08:07:37;;;;;;;18.45;8.20;;;;;;;;;;5038882;28;20053;-71
2022/01/01 08:10:04;;;;;;;19.15;8.85;;;;;;;;;;5033656;28;20021;-71
2022/01/01 08:12:29;;;;;;;18.92;8.43;;;;;;;;;;5052597;28;20036;-71
2022/01/01 08:14:56;;;;;;;18.70;7.95;;;;;;;;;;5054491;28;20508;-71
2022/01/01 08:17:23;;;;;;;20.02;8.82;;;;;;;;;;5057683;28;20029;-71
2022/01/01 08:19:48;;;;;;;19.15;8.95;;;;;;;;;;5051282;28;20051;-70
2022/01/01 08:22:14;;;;;;;21.30;9.38;;;;;;;;;;5040013;28;20493;-70
2022/01/01 08:24:41;;;;;;;15.02;7.28;;;;;;;;;;5058086;28;20041;-71
2022/01/01 08:27:06;;;;;;;16.67;7.50;;;;;;;;;;5057698;28;20406;-71
2022/01/01 08:29:32;;;;;;;18.58;8.20;;;;;;;;;;5052005;28;20044;-71
2022/01/01 08:31:57;;;;;;;13.65;5.63;;;;;;;;;;5057373;28;20418;-71
2022/01/01 08:34:23;;;;;;;20.35;7.72;;;;;;;;;;5055554;28;20032;-71
2022/01/01 08:36:49;;;;;;;14.85;7.07;;;;;;;;;;5037465;28;20072;-71
2022/01/01 08:39:15;;;;;;;18.25;8.05;;;;;;;;;;5053593;28;20120;-71
2022/01/01 08:41:42;;;;;;;20.17;8.18;;;;;;;;;;5056394;28;20028;-71
2022/01/01 08:44:07;;;;;;;15.82;7.20;;;;;;;;;;5055050;28;20040;-71
2022/01/01 08:46:33;;;;;;;16.05;7.18;;;;;;;;;;5052263;28;20039;-71
2022/01/01 08:48:59;;;;;;;16.20;6.65;;;;;;;;;;5052062;28;20041;-71
2022/01/01 08:51:24;;;;;;;14.30;5.72;;;;;;;;;;5037284;28;20042;-71
2022/01/01 08:53:50;;;;;;;15.57;7.53;;;;;;;;;;5037841;28;20045;-71
2022/01/01 08:56:16;;;;;;;16.30;7.55;;;;;;;;;;5036609;28;20576;-70
2022/01/01 08:58:41;;;;;;;5.80;3.58;;;;;;;;;;5036788;28;20040;-71
2022/01/01 09:01:08;;;;;;;14.45;7.25;;;;;;;;;;5037298;28;20021;-71
2022/01/01 09:03:37;;;;;;;16.13;6.90;;;;;;;;;;5040488;28;20032;-70
2022/01/01 09:06:05;;;;;;;18.10;7.72;;;;;;;;;;5039776;28;20037;-71
2022/01/01 09:08:31;;;;;;;12.43;6.15;;;;;;;;;;5062279;28;20032;-71
2022/01/01 09:10:57;;;;;;;14.77;6.70;;;;;;;;;;5030919;28;20053;-70
2022/01/01 09:13:22;;;;;;;17.30;7.70;;;;;;;;;;5036031;28;20053;-71
2022/01/01 09:15:48;;;;;;;15.18;7.22;;;;;;;;;;5040937;28;20120;-71
2022/01/01 09:18:13;;;;;;;12.85;4.93;;;;;;;;;;5045608;28;20071;-71
2022/01/01 09:20:39;;;;;;;15.23;6.70;;;;;;;;;;5041374;28;20057;-71
2022/01/01 09:23:04;;;;;;;13.15;7.30;;;;;;;;;;5046818;28;20036;-71
2022/01/01 09:25:29;;;;;;;14.10;6.88;;;;;;;;;;5050415;28;20024;-71
2022/01/01 09:27:55;;;;;;;14.05;6.38;;;;;;;;;;5048960;28;20029;-71
2022/01/01 09:30:20;;;;;;;15.38;6.63;;;;;;;;;;5035690;28;20073;-72
2022/01/01 09:32:46;;;;;;;11.45;4.85;;;;;;;;;;5045089;28;20082;-74
2022/01/01 09:35:11;;;;;;;12.00;5.43;;;;;;;;;;5043249;28;20033;-74
2022/01/01 09:37:36;;;;;;;13.32;6.07;;;;;;;;;;5043508;28;20029;-72
2022/01/01 09:40:03;;;;;;;14.25;6.07;;;;;;;;;;5026228;28;20237;-70
2022/01/01 09:42:30;;;;;;;14.88;6.07;;;;;;;;;;5046076;28;20533;-70
2022/01/01 09:44:57;;;;;;;10.20;4.97;;;;;;;;;;5042540;28;20033;-70
2022/01/01 09:47:23;;;;;;;11.50;5.78;;;;;;;;;;5036769;28;20116;-70
2022/01/01 09:49:49;;;;;;;6.93;3.72;;;;;;;;;;5044437;28;20117;-70
2022/01/01 09:52:15;;;;;;;9.57;4.57;;;;;;;;;;5038274;28;20068;-70
2022/01/01 09:54:41;;;;;;;10.13;5.63;;;;;;;;;;5030549;28;20033;-70
2022/01/01 09:57:07;;;;;;;12.95;6.25;;;;;;;;;;5040082;28;20048;-70
2022/01/01 09:59:33;;;;;;;9.35;4.35;;;;;;;;;;5032287;28;20049;-71
2022/01/01 10:01:59;;;;;;;9.40;4.30;;;;;;;;;;5034063;28;20435;-71
2022/01/01 10:04:24;;;;;;;10.45;4.45;;;;;;;;;;5022740;28;20040;-71
2022/01/01 10:07:04;;;;;;;11.50;5.65;;;;;;;;;;5041358;28;20040;-70
2022/01/01 10:09:33;;;;;;;10.82;5.05;;;;;;;;;;5037054;28;20033;-70
2022/01/01 10:12:00;;;;;;;9.50;4.53;;;;;;;;;;5030363;28;20045;-70
2022/01/01 10:14:40;;;;;;;9.93;5.25;;;;;;;;;;5040690;28;20778;-71
2022/01/01 10:17:21;;;;;;;10.43;4.32;;;;;;;;;;5034035;28;20032;-69
2022/01/01 10:19:49;;;;;;;9.80;4.38;;;;;;;;;;5037650;28;20083;-71
2022/01/01 10:22:20;;;;;;;12.48;4.82;;;;;;;;;;5011914;28;20128;-70
2022/01/01 10:27:43;;;;;;;5.03;2.90;;;;;;;;;;5045859;28;20063;-71
2022/01/01 10:30:28;;;;;;;8.65;4.28;;;;;;;;;;5032777;28;20666;-71
2022/01/01 10:33:09;;;;;;;7.65;3.65;;;;;;;;;;5038745;28;20056;-71
2022/01/01 10:35:40;;;;;;;6.47;3.28;;;;;;;;;;5038326;28;20041;-71
2022/01/01 10:38:10;;;;;;;5.28;3.00;;;;;;;;;;5049953;28;20036;-71
2022/01/01 10:40:35;;;;;;;7.15;2.70;;;;;;;;;;5035922;28;20052;-71
2022/01/01 10:43:01;;;;;;;4.57;2.05;;;;;;;;;;5016308;28;21154;-71
2022/01/01 10:45:33;;;;;;;7.97;3.55;;;;;;;;;;5037756;28;20533;-71
2022/01/01 10:48:31;;;;;;;6.28;3.13;;;;;;;;;;5035688;28;20078;-71
2022/01/01 10:50:57;;;;;;;4.15;2.53;;;;;;;;;;5028270;28;20572;-71
2022/01/01 10:53:27;;;;;;;7.28;4.00;;;;;;;;;;5017530;28;20045;-71
2022/01/01 10:55:58;;;;;;;8.43;4.35;;;;;;;;;;5034368;28;20470;-71
2022/01/01 10:58:31;;;;;;;5.72;3.00;;;;;;;;;;5053170;28;20090;-71
2022/01/01 11:01:02;;;;;;;11.17;4.43;;;;;;;;;;5036519;28;20059;-71
2022/01/01 11:03:28;;;;;;;4.53;2.92;;;;;;;;;;5052537;28;20412;-71
2022/01/01 11:06:05;;;;;;;6.10;3.55;;;;;;;;;;5050628;28;20118;-71
2022/01/01 11:08:32;;;;;;;7.43;3.65;;;;;;;;;;5054840;28;20044;-71
2022/01/01 11:10:58;;;;;;;10.45;3.88;;;;;;;;;;5053183;28;20039;-71
2022/01/01 11:13:24;;;;;;;7.55;3.90;;;;;;;;;;5037915;28;20032;-71
2022/01/01 11:15:51;;;;;;;6.97;3.22;;;;;;;;;;5035828;28;20040;-71
2022/01/01 11:18:17;;;;;;;7.30;3.10;;;;;;;;;;5053104;28;20052;-71
2022/01/01 11:20:43;;;;;;;5.70;3.50;;;;;;;;;;5050506;28;20578;-71
2022/01/01 11:23:11;;;;;;;7.80;3.40;;;;;;;;;;5049090;28;20506;-71
2022/01/01 11:25:39;;;;;;;4.68;2.85;;;;;;;;;;5069101;28;20031;-71
2022/01/01 11:28:10;;;;;;;8.00;3.53;;;;;;;;;;5039985;28;20041;-71
2022/01/01 11:30:38;;;;;;;7.35;4.00;;;;;;;;;;5051530;28;20118;-71
2022/01/01 11:33:11;;;;;;;5.32;2.40;;;;;;;;;;5055389;28;20132;-71
2022/01/01 11:35:43;;;;;;;5.35;2.83;;;;;;;;;;5056178;28;20048;-72
2022/01/01 11:38:11;;;;;;;6.72;2.85;;;;;;;;;;5054724;28;20130;-71
2022/01/01 11:41:04;;;;;;;6.93;3.60;;;;;;;;;;5053766;28;20027;-71
2022/01/01 11:43:34;;;;;;;6.90;3.40;;;;;;;;;;5051911;28;20041;-71
2022/01/01 11:46:05;;;;;;;6.88;3.65;;;;;;;;;;5048506;28;20037;-71
2022/01/01 11:48:47;;;;;;;5.65;3.38;;;;;;;;;;5047179;28;20037;-71
2022/01/01 11:51:22;;;;;;;6.60;3.70;;;;;;;;;;5029080;28;20209;-71
2022/01/01 11:54:16;;;;;;;5.72;3.45;;;;;;;;;;5014395;28;20415;-71
2022/01/01 11:56:50;;;;;;;7.63;3.97;;;;;;;;;;5019862;28;21057;-71
2022/01/01 11:59:37;;;;;;;5.47;3.45;;;;;;;;;;5039617;28;20044;-71
2022/01/01 12:02:04;;;;;;;4.25;2.85;;;;;;;;;;5022342;28;20594;-71
2022/01/01 12:04:46;;;;;;;6.95;3.40;;;;;;;;;;5036230;28;20495;-72
2022/01/01 12:07:11;;;;;;;5.60;3.00;;;;;;;;;;5039550;28;20090;-71
2022/01/01 12:10:09;;;;;;;6.22;3.13;;;;;;;;;;5037573;28;20032;-72
2022/01/01 12:12:37;;;;;;;5.55;1.95;;;;;;;;;;5037599;28;20110;-71
2022/01/01 12:15:05;;;;;;;5.47;2.95;;;;;;;;;;5039167;28;20532;-71
2022/01/01 12:17:56;;;;;;;5.65;2.83;;;;;;;;;;5038196;28;20056;-71
2022/01/01 12:20:26;;;;;;;4.38;2.67;;;;;;;;;;5051180;28;20128;-71
2022/01/01 12:22:52;;;;;;;7.18;3.00;;;;;;;;;;5037652;28;20033;-71
2022/01/01 12:25:22;;;;;;;7.00;3.00;;;;;;;;;;5042578;28;20102;-72
2022/01/01 12:27:51;;;;;;;5.40;2.80;;;;;;;;;;5039606;28;20593;-72
2022/01/01 12:30:30;;;;;;;4.47;2.85;;;;;;;;;;5039680;28;20079;-71
2022/01/01 12:32:55;;;;;;;4.85;2.88;;;;;;;;;;5050297;28;20028;-72
2022/01/01 12:35:38;;;;;;;5.82;3.33;;;;;;;;;;5037608;28;20107;-71
2022/01/01 12:38:08;;;;;;;6.18;3.10;;;;;;;;;;5040594;28;20033;-72
2022/01/01 12:40:34;;;;;;;5.80;3.05;;;;;;;;;;5041873;28;20112;-71
2022/01/01 12:43:11;;;;;;;4.40;2.70;;;;;;;;;;5045825;28;20123;-71
2022/01/01 12:45:38;;;;;;;4.80;2.70;;;;;;;;;;5047091;28;20036;-71
2022/01/01 12:48:04;;;;;;;6.72;3.03;;;;;;;;;;5035759;28;20048;-71
2022/01/01 12:50:30;;;;;;;6.97;3.00;;;;;;;;;;5038696;28;20434;-71
2022/01/01 12:52:57;;;;;;;4.32;2.70;;;;;;;;;;5038791;28;20041;-71
2022/01/01 12:55:24;;;;;;;4.97;2.60;;;;;;;;;;5044869;28;20162;-71
2022/01/01 12:57:49;;;;;;;5.72;2.80;;;;;;;;;;5045337;28;20580;-72
2022/01/01 13:00:23;;;;;;;4.30;2.72;;;;;;;;;;5043024;28;20119;-71
2022/01/01 13:02:55;;;;;;;5.10;2.85;;;;;;;;;;5036658;28;20041;-71
2022/01/01 13:05:23;;;;;;;4.93;2.50;;;;;;;;;;5042304;28;20063;-72
2022/01/01 13:07:51;;;;;;;3.28;1.92;;;;;;;;;;5039654;28;20784;-71
2022/01/01 13:10:16;;;;;;;3.75;1.98;;;;;;;;;;5042911;28;20037;-72
2022/01/01 13:12:41;;;;;;;3.45;2.13;;;;;;;;;;5035383;28;20038;-71
2022/01/01 13:15:07;;;;;;;6.30;2.88;;;;;;;;;;5041933;28;20132;-71
2022/01/01 13:17:32;;;;;;;4.13;2.15;;;;;;;;;;5049756;28;20052;-72
2022/01/01 13:19:58;;;;;;;7.97;2.67;;;;;;;;;;5040694;28;20057;-71
2022/01/01 13:22:29;;;;;;;5.45;2.55;;;;;;;;;;5041994;28;20520;-71
2022/01/01 13:24:59;;;;;;;2.90;1.70;;;;;;;;;;5040407;28;20029;-71
2022/01/01 13:27:27;;;;;;;3.42;1.90;;;;;;;;;;5040208;28;20025;-72
2022/01/01 13:29:53;;;;;;;4.10;2.17;;;;;;;;;;5039655;28;20049;-72
2022/01/01 13:32:19;;;;;;;4.38;2.55;;;;;;;;;;5043165;28;20059;-71
2022/01/01 13:34:50;;;;;;;5.88;2.22;;;;;;;;;;5043120;28;20417;-71
2022/01/01 13:37:21;;;;;;;4.10;2.08;;;;;;;;;;5043957;28;20449;-71
2022/01/01 13:39:46;;;;;;;4.38;1.63;;;;;;;;;;5045574;28;20030;-71
2022/01/01 13:42:16;;;;;;;3.38;2.22;;;;;;;;;;5048653;28;20556;-71
2022/01/01 13:44:43;;;;;;;3.67;2.10;;;;;;;;;;5048576;28;20069;-71
2022/01/01 13:47:09;;;;;;;4.00;2.28;;;;;;;;;;5041131;28;20029;-71
2022/01/01 13:49:41;;;;;;;4.40;1.95;;;;;;;;;;5064074;28;20040;-71
2022/01/01 13:52:08;;;;;;;2.72;1.55;;;;;;;;;;5058961;28;20522;-71
2022/01/01 13:54:38;;;;;;;4.13;2.00;;;;;;;;;;5056968;28;20041;-71
2022/01/01 13:57:07;;;;;;;2.72;1.95;;;;;;;;;;5059269;28;20105;-71
2022/01/01 13:59:34;;;;;;;3.80;1.90;;;;;;;;;;5064187;28;20033;-71
2022/01/01 14:02:04;;;;;;;3.03;2.15;;;;;;;;;;5042348;28;20108;-71
2022/01/01 14:04:30;;;;;;;3.72;2.25;;;;;;;;;;5030296;28;20104;-71
2022/01/01 14:07:04;;;;;;;3.35;2.10;;;;;;;;;;5038862;28;20037;-71
2022/01/01 14:09:30;;;;;;;3.95;2.08;;;;;;;;;;5042395;28;20033;-73
2022/01/01 14:11:55;;;;;;;3.47;2.13;;;;;;;;;;5056257;28;20732;-71
2022/01/01 14:14:27;;;;;;;4.97;2.50;;;;;;;;;;5056426;28;20787;-71
2022/01/01 14:16:52;;;;;;;4.05;2.08;;;;;;;;;;5055456;28;20036;-71
2022/01/01 14:19:20;;;;;;;5.53;2.28;;;;;;;;;;5035883;28;20052;-71
2022/01/01 14:21:49;;;;;;;7.20;2.38;;;;;;;;;;5042824;28;20505;-72
2022/01/01 14:24:16;;;;;;;2.83;1.83;;;;;;;;;;5053660;28;20071;-71
2022/01/01 14:26:53;;;;;;;4.80;1.83;;;;;;;;;;5062880;28;20032;-72
2022/01/01 14:29:24;;;;;;;2.45;1.58;;;;;;;;;;5060900;28;20041;-71
2022/01/01 14:31:51;;;;;;;1.95;1.30;;;;;;;;;;5066878;28;20031;-71
2022/01/01 14:34:16;;;;;;;4.07;2.17;;;;;;;;;;5056010;28;20044;-71
2022/01/01 14:36:50;;;;;;;4.38;1.58;;;;;;;;;;5057127;28;20040;-71
2022/01/01 14:39:16;;;;;;;;;;;;;;;;;;5055832;28;20383;-71